createdAt,value
2023-05-06T00:01:30.281Z,55.46
2023-05-06T00:04:03.513Z,55.04
2023-05-06T00:06:35.999Z,55.38
2023-05-06T00:09:08.197Z,55.73
2023-05-06T00:11:40.713Z,55.56
2023-05-06T00:14:13.402Z,56.25
2023-05-06T00:16:46.241Z,55.87
2023-05-06T00:19:18.746Z,56.19
2023-05-06T00:21:51.401Z,56.69
2023-05-06T00:24:25.591Z,57.08
2023-05-06T00:26:58.677Z,57.23
2023-05-06T00:29:31.231Z,57.50
2023-05-06T00:32:03.652Z,57.50
2023-05-06T00:34:36.034Z,57.69
2023-05-06T00:37:08.380Z,58.02
2023-05-06T00:39:40.489Z,58.32
2023-05-06T00:42:13.106Z,58.24
2023-05-06T00:44:45.215Z,58.74
2023-05-06T00:47:18.794Z,58.94
2023-05-06T00:49:51.860Z,59.21
2023-05-06T00:52:24.340Z,59.30
2023-05-06T00:54:56.620Z,59.56
2023-05-06T00:57:28.671Z,59.48
2023-05-06T01:00:01.012Z,59.92
2023-05-06T01:02:46.514Z,60.19
2023-05-06T01:05:10.469Z,60.42
2023-05-06T01:07:43.618Z,60.68
2023-05-06T01:10:38.347Z,59.36
2023-05-06T01:13:22.621Z,60.25
2023-05-06T01:15:57.799Z,60.52
2023-05-06T01:18:33.184Z,60.40
2023-05-06T01:21:07.659Z,61.17
2023-05-06T01:23:58.472Z,61.61
2023-05-06T01:26:30.854Z,61.94
2023-05-06T01:29:04.041Z,62.04
2023-05-06T01:31:39.088Z,62.26
2023-05-06T01:34:17.196Z,62.33
2023-05-06T01:37:08.826Z,62.86
2023-05-06T01:39:42.804Z,62.94
2023-05-06T01:42:16.711Z,63.16
2023-05-06T01:44:51.666Z,63.43
2023-05-06T01:47:24.477Z,63.44
2023-05-06T01:49:57.500Z,63.66
2023-05-06T01:52:29.940Z,63.80
2023-05-06T01:55:02.157Z,64.08
2023-05-06T01:57:34.996Z,64.32
2023-05-06T02:00:08.178Z,64.26
2023-05-06T02:02:42.347Z,64.44
2023-05-06T02:05:14.647Z,64.53
2023-05-06T02:07:47.614Z,64.55
2023-05-06T02:10:20.156Z,64.57
2023-05-06T02:12:54.444Z,64.64
2023-05-06T02:15:27.758Z,64.53
2023-05-06T02:18:01.703Z,64.81
2023-05-06T02:20:34.394Z,64.54
2023-05-06T02:23:08.328Z,64.61
2023-05-06T02:25:40.477Z,64.53
2023-05-06T02:28:13.041Z,64.00
2023-05-06T02:30:45.778Z,64.22
2023-05-06T02:33:17.940Z,63.78
2023-05-06T02:35:50.461Z,63.63
2023-05-06T02:38:23.299Z,63.92
2023-05-06T02:40:55.400Z,63.82
2023-05-06T02:43:27.662Z,63.96
2023-05-06T02:45:59.916Z,63.89
2023-05-06T02:48:32.373Z,63.92
2023-05-06T02:51:06.944Z,63.90
2023-05-06T02:53:38.651Z,63.79
2023-05-06T02:56:10.605Z,62.76
2023-05-06T02:58:43.117Z,63.03
2023-05-06T03:01:15.406Z,63.30
2023-05-06T03:03:48.141Z,62.91
2023-05-06T03:06:21.131Z,62.75
2023-05-06T03:08:53.588Z,61.84
2023-05-06T03:11:25.860Z,61.62
2023-05-06T03:13:58.473Z,60.72
2023-05-06T03:16:30.752Z,60.54
2023-05-06T03:19:05.204Z,60.27
2023-05-06T03:21:37.482Z,60.38
2023-05-06T03:24:09.130Z,59.89
2023-05-06T03:26:41.376Z,59.50
2023-05-06T03:29:14.176Z,59.59
2023-05-06T03:31:49.052Z,59.90
2023-05-06T03:34:22.076Z,59.27
2023-05-06T03:36:54.881Z,59.21
2023-05-06T03:39:27.253Z,59.20
2023-05-06T03:41:59.867Z,59.07
2023-05-06T03:44:32.356Z,59.63
2023-05-06T03:47:04.929Z,58.72
2023-05-06T03:49:37.968Z,57.72
2023-05-06T03:52:10.348Z,57.59
2023-05-06T03:54:42.767Z,56.75
2023-05-06T03:57:14.878Z,56.84
2023-05-06T03:59:47.862Z,56.16
2023-05-06T04:02:20.670Z,55.51
2023-05-06T04:04:52.835Z,55.48
2023-05-06T04:07:25.053Z,55.67
2023-05-06T04:09:57.125Z,55.93
2023-05-06T04:12:29.740Z,55.35
2023-05-06T04:15:02.148Z,54.41
2023-05-06T04:17:34.562Z,54.32
2023-05-06T04:20:09.655Z,52.95
2023-05-06T04:22:42.916Z,52.84
2023-05-06T04:25:16.372Z,52.29
2023-05-06T04:27:50.181Z,51.85
2023-05-06T04:30:23.544Z,51.18
2023-05-06T04:32:55.913Z,51.65
2023-05-06T04:35:28.390Z,51.47
2023-05-06T04:38:01.330Z,50.69
2023-05-06T04:40:36.681Z,50.28
2023-05-06T04:43:10.521Z,49.77
2023-05-06T04:45:46.305Z,49.36
2023-05-06T04:48:19.795Z,49.49
2023-05-06T04:50:53.198Z,49.14
2023-05-06T04:53:25.695Z,48.42
2023-05-06T04:55:59.302Z,47.79
2023-05-06T04:58:31.920Z,47.98
2023-05-06T05:01:06.327Z,48.01
2023-05-06T05:03:44.974Z,47.72
2023-05-06T05:06:17.300Z,48.59
2023-05-06T05:08:50.039Z,48.16
2023-05-06T05:11:22.587Z,47.52
2023-05-06T05:13:56.898Z,46.57
2023-05-06T05:16:29.961Z,46.43
2023-05-06T05:19:09.025Z,45.93
2023-05-06T05:21:40.700Z,45.92
2023-05-06T05:24:13.180Z,46.30
2023-05-06T05:26:45.898Z,45.94
2023-05-06T05:29:19.586Z,45.26
2023-05-06T05:31:52.282Z,44.71
2023-05-06T05:34:24.595Z,45.17
2023-05-06T05:36:58.793Z,44.63
2023-05-06T05:39:30.880Z,44.44
2023-05-06T05:42:04.060Z,44.39
2023-05-06T05:44:37.372Z,43.78
2023-05-06T05:47:10.237Z,43.15
2023-05-06T05:49:43.119Z,42.79
2023-05-06T05:52:16.713Z,42.85
2023-05-06T05:54:49.989Z,43.25
2023-05-06T05:57:22.088Z,42.51
2023-05-06T05:59:54.433Z,42.48
2023-05-06T06:02:26.693Z,42.58
2023-05-06T06:04:59.260Z,42.47
2023-05-06T06:07:33.915Z,42.63
2023-05-06T06:10:06.460Z,41.99
2023-05-06T06:12:38.714Z,42.36
2023-05-06T06:15:12.556Z,41.97
2023-05-06T06:17:46.022Z,41.86
2023-05-06T06:20:18.509Z,41.07
2023-05-06T06:22:50.701Z,40.37
2023-05-06T06:25:23.894Z,40.34
2023-05-06T06:27:57.676Z,40.67
2023-05-06T06:30:30.094Z,40.74
2023-05-06T06:33:02.642Z,39.93
2023-05-06T06:35:35.040Z,40.00
2023-05-06T06:38:07.243Z,39.78
2023-05-06T06:40:39.525Z,40.41
2023-05-06T06:43:11.846Z,39.92
2023-05-06T06:46:02.187Z,39.70
2023-05-06T06:48:35.033Z,39.05
2023-05-06T06:51:07.272Z,39.84
2023-05-06T06:53:39.407Z,39.74
2023-05-06T06:56:13.254Z,39.94
2023-05-06T06:58:45.663Z,39.27
2023-05-06T07:01:18.048Z,39.18
2023-05-06T07:03:50.154Z,38.77
2023-05-06T07:06:22.415Z,38.22
2023-05-06T07:08:56.497Z,37.90
2023-05-06T07:11:28.640Z,37.61
2023-05-06T07:14:01.225Z,37.45
2023-05-06T07:16:33.648Z,37.34
2023-05-06T07:19:05.904Z,37.32
2023-05-06T07:21:38.026Z,37.60
2023-05-06T07:24:11.397Z,37.85
2023-05-06T07:26:45.338Z,37.95
2023-05-06T07:29:18.071Z,38.72
2023-05-06T07:31:50.527Z,38.97
2023-05-06T07:34:22.753Z,36.47
2023-05-06T07:36:54.927Z,35.22
2023-05-06T07:39:27.210Z,34.72
2023-05-06T07:41:59.490Z,34.95
2023-05-06T07:44:31.807Z,35.15
2023-05-06T07:47:04.353Z,35.69
2023-05-06T07:49:36.759Z,35.39
2023-05-06T07:52:10.554Z,34.73
2023-05-06T07:54:42.733Z,34.12
2023-05-06T07:57:16.090Z,34.10
2023-05-06T07:59:50.919Z,33.89
2023-05-06T08:02:24.254Z,34.31
2023-05-06T08:04:57.639Z,34.08
2023-05-06T08:07:30.160Z,34.67
2023-05-06T08:10:02.312Z,35.57
2023-05-06T08:12:36.626Z,35.54
2023-05-06T08:15:09.974Z,35.85
2023-05-06T08:17:42.843Z,34.68
2023-05-06T08:20:15.664Z,34.92
2023-05-06T08:22:47.855Z,34.51
2023-05-06T08:25:20.111Z,35.31
2023-05-06T08:27:52.319Z,35.51
2023-05-06T08:30:24.716Z,34.70
2023-05-06T08:32:56.929Z,35.13
2023-05-06T08:35:29.374Z,33.29
2023-05-06T08:38:02.236Z,34.65
2023-05-06T08:40:35.380Z,33.36
2023-05-06T08:43:09.937Z,33.54
2023-05-06T08:45:43.087Z,33.14
2023-05-06T08:48:15.413Z,33.27
2023-05-06T08:50:50.149Z,34.32
2023-05-06T08:53:22.804Z,33.94
2023-05-06T08:55:56.181Z,35.03
2023-05-06T08:58:29.088Z,35.83
2023-05-06T09:01:02.136Z,35.56
2023-05-06T09:03:34.776Z,35.98
2023-05-06T09:06:07.072Z,34.46
2023-05-06T09:08:39.367Z,33.52
2023-05-06T09:11:26.204Z,33.44
2023-05-06T09:14:13.861Z,32.11
2023-05-06T09:16:51.014Z,32.19
2023-05-06T09:19:24.264Z,31.67
2023-05-06T09:21:57.660Z,31.19
2023-05-06T09:24:30.110Z,30.98
2023-05-06T09:27:03.604Z,31.02
2023-05-06T09:29:36.516Z,31.01
2023-05-06T09:32:11.893Z,30.61
2023-05-06T09:34:46.887Z,30.53
2023-05-06T09:37:21.111Z,29.75
2023-05-06T09:39:58.715Z,30.09
2023-05-06T09:42:34.223Z,27.43
2023-05-06T09:45:10.561Z,27.86
2023-05-06T09:47:44.857Z,28.68
2023-05-06T09:50:17.777Z,28.93
2023-05-06T09:52:51.268Z,28.66
2023-05-06T09:55:27.187Z,28.75
2023-05-06T09:58:01.848Z,28.43
2023-05-06T10:00:35.317Z,27.38
2023-05-06T10:03:09.120Z,26.38
2023-05-06T10:05:41.841Z,27.08
2023-05-06T10:08:18.014Z,27.05
2023-05-06T10:10:52.185Z,27.17
2023-05-06T10:13:25.227Z,26.32
2023-05-06T10:15:57.859Z,26.44
2023-05-06T10:18:31.833Z,26.21
2023-05-06T10:21:07.143Z,26.34
2023-05-06T10:23:50.283Z,25.87
2023-05-06T10:26:24.659Z,25.12
2023-05-06T10:28:56.395Z,25.20
2023-05-06T10:31:29.470Z,26.15
2023-05-06T10:34:04.923Z,26.08
2023-05-06T10:36:39.860Z,26.18
2023-05-06T10:39:14.452Z,26.40
2023-05-06T10:41:47.048Z,26.58
2023-05-06T10:44:19.598Z,25.60
2023-05-06T10:47:03.048Z,25.37
2023-05-06T10:49:35.828Z,25.64
2023-05-06T10:52:17.340Z,25.62
2023-05-06T10:54:52.382Z,25.61
2023-05-06T10:57:26.384Z,24.57
2023-05-06T10:59:58.831Z,23.75
2023-05-06T11:02:32.142Z,23.67
2023-05-06T11:05:06.841Z,23.95
2023-05-06T11:07:39.403Z,24.06
2023-05-06T11:10:12.434Z,25.41
2023-05-06T11:12:53.761Z,23.99
2023-05-06T11:15:30.666Z,24.07
2023-05-06T11:18:04.521Z,23.94
2023-05-06T11:20:37.457Z,24.25
2023-05-06T11:23:09.716Z,24.38
2023-05-06T11:25:43.299Z,23.62
2023-05-06T11:28:16.903Z,23.92
2023-05-06T11:30:52.105Z,23.76
2023-05-06T11:33:27.154Z,23.71
2023-05-06T11:36:00.204Z,23.74
2023-05-06T11:38:56.508Z,23.56
2023-05-06T11:41:29.108Z,23.70
2023-05-06T11:44:01.237Z,23.66
2023-05-06T11:46:35.597Z,23.54
2023-05-06T11:49:08.122Z,23.27
2023-05-06T11:51:40.302Z,24.00
2023-05-06T11:54:13.378Z,23.18
2023-05-06T11:56:48.110Z,23.51
2023-05-06T11:59:28.797Z,22.06
2023-05-06T12:02:04.057Z,21.15
2023-05-06T12:04:46.714Z,18.78
2023-05-06T12:07:19.260Z,18.40
2023-05-06T12:09:52.173Z,20.25
2023-05-06T12:12:26.429Z,21.66
2023-05-06T12:14:59.455Z,22.99
2023-05-06T12:17:32.437Z,23.96
2023-05-06T12:20:06.026Z,23.80
2023-05-06T12:22:39.399Z,24.33
2023-05-06T12:25:16.206Z,24.33
2023-05-06T12:27:49.382Z,25.09
2023-05-06T12:30:33.098Z,25.42
2023-05-06T12:33:05.424Z,26.15
2023-05-06T12:35:38.576Z,26.54
2023-05-06T12:38:13.508Z,26.71
2023-05-06T12:40:48.319Z,26.18
2023-05-06T12:43:19.982Z,25.30
2023-05-06T12:46:10.904Z,25.51
2023-05-06T12:49:03.986Z,24.07
2023-05-06T12:51:36.543Z,23.64
2023-05-06T12:54:12.133Z,23.01
2023-05-06T12:56:47.207Z,24.46
2023-05-06T12:59:21.387Z,22.92
2023-05-06T13:01:53.521Z,23.12
2023-05-06T13:04:27.084Z,23.69
2023-05-06T13:06:59.434Z,25.04
2023-05-06T13:09:32.075Z,25.27
2023-05-06T13:12:05.167Z,26.72
2023-05-06T13:14:40.097Z,26.10
2023-05-06T13:17:11.783Z,25.74
2023-05-06T13:19:44.393Z,24.99
2023-05-06T13:22:17.673Z,23.85
2023-05-06T13:24:50.886Z,22.14
2023-05-06T13:27:23.125Z,22.04
2023-05-06T13:29:55.755Z,22.29
2023-05-06T13:32:28.304Z,21.85
2023-05-06T13:35:00.814Z,21.99
2023-05-06T13:37:33.420Z,23.02
2023-05-06T13:40:06.544Z,24.30
2023-05-06T13:42:39.082Z,24.76
2023-05-06T13:45:11.487Z,25.28
2023-05-06T13:47:44.242Z,24.66
2023-05-06T13:50:16.568Z,22.23
2023-05-06T13:52:48.752Z,19.96
2023-05-06T13:55:21.293Z,18.10
2023-05-06T13:57:53.453Z,17.35
2023-05-06T14:00:25.951Z,18.94
2023-05-06T14:02:59.091Z,21.08
2023-05-06T14:05:31.705Z,21.08
2023-05-06T14:08:04.196Z,22.47
2023-05-06T14:10:36.300Z,23.46
2023-05-06T14:13:08.598Z,23.99
2023-05-06T14:15:40.954Z,25.02
2023-05-06T14:18:13.379Z,25.22
2023-05-06T14:20:46.008Z,25.44
2023-05-06T14:23:18.291Z,26.04
2023-05-06T14:25:50.921Z,26.33
2023-05-06T14:28:23.167Z,25.88
2023-05-06T14:30:55.370Z,24.87
2023-05-06T14:33:27.585Z,24.63
2023-05-06T14:36:01.524Z,23.77
2023-05-06T14:38:33.746Z,21.58
2023-05-06T14:41:05.872Z,20.92
2023-05-06T14:43:38.263Z,21.26
2023-05-06T14:46:11.401Z,21.72
2023-05-06T14:48:44.588Z,23.06
2023-05-06T14:51:16.928Z,24.05
2023-05-06T14:53:49.844Z,24.64
2023-05-06T14:56:22.086Z,25.19
2023-05-06T14:58:54.181Z,25.73
2023-05-06T15:01:26.495Z,26.08
2023-05-06T15:03:59.287Z,26.15
2023-05-06T15:06:32.249Z,26.34
2023-05-06T15:09:04.702Z,26.62
2023-05-06T15:11:37.576Z,26.20
2023-05-06T15:14:09.838Z,26.67
2023-05-06T15:16:42.047Z,25.80
2023-05-06T15:19:14.455Z,25.95
2023-05-06T15:21:47.273Z,26.36
2023-05-06T15:24:19.583Z,25.78
2023-05-06T15:26:51.808Z,26.04
2023-05-06T15:29:24.839Z,26.41
2023-05-06T15:31:57.089Z,26.22
2023-05-06T15:34:29.175Z,26.49
2023-05-06T15:37:02.098Z,26.71
2023-05-06T15:39:40.805Z,27.17
2023-05-06T15:42:12.830Z,27.66
2023-05-06T15:44:45.024Z,28.24
2023-05-06T15:47:17.193Z,29.00
2023-05-06T15:49:54.451Z,29.50
2023-05-06T15:52:23.960Z,30.08
2023-05-06T15:54:59.745Z,30.71
2023-05-06T15:57:32.481Z,31.17
2023-05-06T16:00:08.250Z,31.78
2023-05-06T16:02:40.832Z,31.97
2023-05-06T16:05:13.439Z,32.50
2023-05-06T16:07:45.763Z,33.04
2023-05-06T16:10:18.010Z,33.56
2023-05-06T16:12:50.494Z,33.24
2023-05-06T16:15:22.837Z,33.47
2023-05-06T16:17:55.421Z,33.82
2023-05-06T16:20:27.500Z,34.08
2023-05-06T16:23:00.054Z,34.22
2023-05-06T16:25:32.396Z,33.88
2023-05-06T16:28:06.783Z,34.30
2023-05-06T16:30:40.927Z,34.93
2023-05-06T16:33:13.582Z,35.06
2023-05-06T16:35:46.901Z,35.62
2023-05-06T16:38:19.545Z,35.36
2023-05-06T16:40:51.848Z,35.27
2023-05-06T16:43:24.537Z,35.49
2023-05-06T16:45:56.649Z,35.56
2023-05-06T16:48:29.079Z,35.52
2023-05-06T16:51:01.416Z,35.55
2023-05-06T16:53:33.570Z,35.57
2023-05-06T16:56:06.195Z,36.59
2023-05-06T16:58:38.578Z,40.10
2023-05-06T17:01:11.367Z,41.33
2023-05-06T17:03:43.578Z,40.96
2023-05-06T17:06:15.676Z,41.75
2023-05-06T17:08:48.748Z,42.99
2023-05-06T17:11:21.116Z,41.80
2023-05-06T17:13:53.539Z,42.54
2023-05-06T17:16:25.815Z,42.40
2023-05-06T17:18:57.986Z,42.07
2023-05-06T17:21:30.390Z,42.36
2023-05-06T17:24:02.578Z,41.58
2023-05-06T17:26:36.003Z,41.88
2023-05-06T17:29:08.311Z,41.06
2023-05-06T17:31:40.698Z,40.78
2023-05-06T17:34:13.148Z,40.44
2023-05-06T17:36:45.582Z,40.76
2023-05-06T17:39:18.312Z,40.70
2023-05-06T17:41:50.843Z,40.72
2023-05-06T17:44:23.060Z,41.03
2023-05-06T17:46:56.450Z,40.46
2023-05-06T17:49:28.742Z,40.90
2023-05-06T17:52:01.817Z,40.92
2023-05-06T17:54:35.305Z,41.42
2023-05-06T17:57:07.441Z,41.61
2023-05-06T17:59:39.850Z,41.65
2023-05-06T18:02:13.657Z,41.72
2023-05-06T18:04:47.543Z,41.91
2023-05-06T18:07:19.815Z,42.14
2023-05-06T18:09:52.451Z,42.45
2023-05-06T18:12:24.666Z,42.75
2023-05-06T18:14:57.020Z,43.04
2023-05-06T18:17:29.553Z,43.45
2023-05-06T18:20:01.715Z,43.90
2023-05-06T18:22:35.547Z,44.30
2023-05-06T18:25:08.932Z,44.11
2023-05-06T18:27:41.899Z,44.85
2023-05-06T18:30:15.975Z,45.12
2023-05-06T18:32:51.006Z,45.27
2023-05-06T18:35:21.739Z,44.85
2023-05-06T18:37:53.299Z,43.84
2023-05-06T18:40:25.524Z,45.53
2023-05-06T18:42:57.468Z,45.97
2023-05-06T18:45:29.681Z,46.37
2023-05-06T18:48:02.071Z,46.62
2023-05-06T18:50:34.637Z,46.75
2023-05-06T18:53:07.025Z,46.61
2023-05-06T18:55:39.443Z,46.91
2023-05-06T18:58:11.588Z,47.76
2023-05-06T19:00:44.484Z,48.05
2023-05-06T19:03:16.796Z,48.20
2023-05-06T19:05:48.924Z,48.64
2023-05-06T19:08:21.476Z,48.14
2023-05-06T19:10:53.539Z,48.82
2023-05-06T19:13:25.937Z,49.25
2023-05-06T19:15:58.048Z,49.48
2023-05-06T19:18:30.122Z,49.86
2023-05-06T19:21:02.734Z,50.12
2023-05-06T19:23:34.896Z,50.62
2023-05-06T19:26:07.522Z,51.04
2023-05-06T19:28:41.596Z,51.29
2023-05-06T19:31:13.974Z,51.69
2023-05-06T19:33:46.515Z,51.70
2023-05-06T19:36:18.557Z,51.63
2023-05-06T19:38:50.709Z,51.71
2023-05-06T19:41:22.934Z,51.88
2023-05-06T19:43:56.689Z,51.89
2023-05-06T19:46:28.948Z,51.83
2023-05-06T19:49:01.208Z,52.08
2023-05-06T19:51:33.149Z,52.14
2023-05-06T19:54:05.703Z,52.08
2023-05-06T19:56:37.949Z,52.19
2023-05-06T19:59:10.061Z,52.62
2023-05-06T20:01:42.279Z,52.79
2023-05-06T20:04:14.412Z,53.02
2023-05-06T20:06:46.506Z,53.29
2023-05-06T20:09:18.782Z,53.49
2023-05-06T20:11:50.904Z,53.09
2023-05-06T20:14:23.260Z,53.41
2023-05-06T20:16:55.760Z,53.35
2023-05-06T20:19:31.297Z,53.67
2023-05-06T20:22:03.916Z,53.64
2023-05-06T20:24:36.847Z,53.72
2023-05-06T20:27:09.836Z,54.05
2023-05-06T20:29:42.889Z,54.14
2023-05-06T20:32:15.252Z,54.10
2023-05-06T20:34:50.406Z,54.27
2023-05-06T20:37:22.455Z,54.46
2023-05-06T20:39:54.683Z,54.78
2023-05-06T20:42:26.883Z,55.15
2023-05-06T20:45:00.303Z,55.11
2023-05-06T20:47:35.220Z,55.44
2023-05-06T20:50:07.806Z,55.62
2023-05-06T20:52:40.072Z,55.86
2023-05-06T20:55:13.835Z,56.01
2023-05-06T20:57:46.008Z,56.37
2023-05-06T21:00:19.168Z,56.37
2023-05-06T21:02:51.732Z,56.21
2023-05-06T21:05:23.928Z,56.64
2023-05-06T21:07:56.189Z,56.66
2023-05-06T21:10:29.808Z,56.88
2023-05-06T21:13:02.130Z,56.99
2023-05-06T21:15:35.647Z,56.61
2023-05-06T21:18:07.919Z,57.10
2023-05-06T21:20:40.047Z,56.92
2023-05-06T21:23:12.165Z,57.06
2023-05-06T21:25:44.399Z,56.94
2023-05-06T21:28:17.108Z,57.56
2023-05-06T21:30:49.384Z,57.45
2023-05-06T21:33:21.653Z,57.48
2023-05-06T21:35:53.680Z,57.53
2023-05-06T21:38:27.889Z,57.93
2023-05-06T21:41:00.198Z,57.49
2023-05-06T21:43:33.465Z,57.80
2023-05-06T21:46:06.118Z,58.00
2023-05-06T21:48:38.146Z,58.09
2023-05-06T21:51:10.280Z,58.35
2023-05-06T21:53:42.430Z,58.53
2023-05-06T21:56:14.261Z,58.85
2023-05-06T21:58:46.591Z,59.14
2023-05-06T22:01:19.308Z,59.45
2023-05-06T22:03:51.908Z,59.33
2023-05-06T22:06:24.322Z,59.65
2023-05-06T22:08:56.601Z,59.80
2023-05-06T22:11:28.891Z,59.98
2023-05-06T22:14:01.234Z,59.89
2023-05-06T22:16:35.489Z,59.53
2023-05-06T22:19:08.602Z,59.70
2023-05-06T22:21:41.492Z,59.82
2023-05-06T22:24:13.712Z,59.84
2023-05-06T22:26:46.048Z,60.07
2023-05-06T22:29:19.069Z,60.48
2023-05-06T22:31:51.351Z,60.41
2023-05-06T22:34:23.849Z,60.42
2023-05-06T22:36:58.038Z,60.60
2023-05-06T22:39:30.165Z,60.70
2023-05-06T22:42:02.564Z,60.61
2023-05-06T22:44:35.316Z,61.06
2023-05-06T22:47:08.000Z,61.08
2023-05-06T22:49:40.749Z,60.63
2023-05-06T22:52:13.192Z,60.75
2023-05-06T22:54:45.610Z,60.78
2023-05-06T22:57:19.358Z,61.01
2023-05-06T22:59:51.816Z,60.94
2023-05-06T23:02:23.911Z,61.29
2023-05-06T23:04:56.190Z,61.30
2023-05-06T23:07:28.283Z,61.46
2023-05-06T23:10:00.343Z,61.48
2023-05-06T23:12:35.752Z,61.59
2023-05-06T23:15:09.009Z,61.85
2023-05-06T23:17:41.850Z,62.01
2023-05-06T23:20:14.332Z,62.12
2023-05-06T23:22:46.461Z,62.33
2023-05-06T23:25:18.732Z,62.42
2023-05-06T23:27:51.324Z,62.43
2023-05-06T23:30:23.870Z,62.65
2023-05-06T23:32:55.978Z,62.39
2023-05-06T23:35:28.295Z,62.24
2023-05-06T23:38:00.497Z,62.47
2023-05-06T23:40:32.663Z,62.32
2023-05-06T23:43:06.329Z,62.74
2023-05-06T23:45:38.752Z,62.90
2023-05-06T23:48:11.097Z,62.96
2023-05-06T23:50:43.173Z,63.20
2023-05-06T23:53:15.523Z,63.42
2023-05-06T23:55:47.902Z,63.62
2023-05-06T23:58:20.114Z,63.57
